Five Points, California
Current Conditions -  °F | °C
As of 5:56 PM on Saturday 20 Dec 2014 (Local Time) from KNLC Reporting Station
Broken Clouds Broken Clouds  
Wind Chill: 56°   Ceiling: 12000
Heat Index: 56°   Visibility: NA
Dew Point: 54°   Wind: 8mph
Humidity: 93%   Direction: 320°NW
Pressure: 30.23"   Gusts: NA
Location:  36.42°N, 120.1°W
Report Text: KNLC 210156Z AUTO 32007KT BKN120 13/12 A3023 RMK AO2 SLP236 T01330122 RVRNO $
Loading
Personal Weather Stations






























Interactive Weather Map New forecast layout! Learn more

10-Day Weather Forecast

Advertisements
Track Severe Weather on mobile